Data for 06/05/2008

Time Sea-Level Adjusted Pressure Absolute Pressure Temperature Relative Humidity Dew Point   
(mb) (inHg) (mb) (inHg) (C) (F) (%) (C) (F)
00:05 1012 29.88 841 24.83 7.4 45.4 164 14.8 58.6
00:10 1012 29.88 841 24.83 7.4 45.4 164 14.8 58.6
00:15 1012 29.88 841 24.83 7.5 45.4 164 14.8 58.7
00:20 1012 29.88 841 24.83 7.5 45.4 164 14.8 58.7
00:25 1012 29.88 841 24.83 7.5 45.6 164 14.9 58.8
00:30 1012 29.88 841 24.83 7.5 45.5 164 14.9 58.8
00:35 1012 29.88 841 24.83 7.5 45.5 164 14.9 58.7
00:40 1012 29.88 841 24.83 7.5 45.5 164 14.8 58.7
00:45 1012 29.88 841 24.83 7.5 45.5 164 14.8 58.7
00:50 1012 29.88 841 24.83 7.5 45.5 164 14.9 58.8
00:55 1012 29.88 841 24.83 7.5 45.5 164 14.9 58.8
01:00 1012 29.88 841 24.83 7.5 45.5 164 14.9 58.8
01:05 1012 29.88 841 24.83 7.5 45.4 164 14.8 58.7
01:10 1012 29.88 841 24.83 7.4 45.3 164 14.8 58.6
01:15 1012 29.88 841 24.83 7.4 45.3 164 14.7 58.5
01:20 1012 29.88 841 24.83 7.4 45.3 164 14.7 58.5
01:25 1012 29.88 841 24.83 7.3 45.2 164 14.7 58.4
01:30 1012 29.88 841 24.83 7.3 45.2 164 14.7 58.4
01:35 1012 29.88 841 24.83 7.3 45.1 164 14.7 58.4
01:40 1012 29.88 841 24.83 7.3 45.1 164 14.6 58.4
01:45 1012 29.88 841 24.83 7.3 45.1 164 14.6 58.3
01:50 1012 29.88 841 24.83 7.3 45.1 164 14.6 58.3
01:55 1012 29.88 841 24.83 7.3 45.1 164 14.7 58.4
02:00 1012 29.88 841 24.83 7.2 45 164 14.6 58.2
02:05 1012 29.88 841 24.83 7.2 44.9 164 14.5 58.1
02:10 1012 29.88 841 24.83 7.2 44.9 164 14.5 58.2
02:15 1012 29.88 841 24.83 7.2 44.9 164 14.5 58.1
02:20 1012 29.88 841 24.83 7.2 44.9 164 14.5 58.1
02:25 1012 29.88 841 24.83 7.1 44.8 164 14.5 58
02:30 1012 29.88 841 24.83 7.1 44.8 164 14.5 58
02:35 1012 29.88 841 24.83 7.1 44.8 164 14.5 58
02:40 1012 29.88 841 24.83 7.1 44.8 164 14.5 58
02:45 1012 29.88 841 24.83 7.1 44.8 164 14.5 58
02:50 1012 29.88 841 24.83 7.1 44.8 164 14.5 58
02:55 1012 29.88 841 24.83 7.2 45 164 14.6 58.2
03:00 1012 29.88 841 24.83 7.2 44.9 164 14.5 58.2
03:05 1012 29.88 841 24.83 7.2 44.9 164 14.5 58.1
03:10 1012 29.88 841 24.83 7.1 44.8 164 14.5 58
03:15 1012 29.88 841 24.83 7.2 44.9 164 14.5 58.1
03:20 1012 29.88 841 24.83 7.1 44.8 164 14.5 58
03:25 1012 29.88 841 24.83 7.1 44.8 164 14.4 58
03:30 1012 29.88 841 24.83 7.1 44.8 164 14.4 58
03:35 1012 29.88 841 24.83 7.2 44.9 164 14.5 58.1
03:40 1012 29.88 841 24.83 7.1 44.9 164 14.5 58.1
03:45 1012 29.88 841 24.83 7.2 44.9 164 14.5 58.1
03:50 1012 29.88 841 24.83 7.1 44.8 164 14.5 58
03:55 1012 29.88 841 24.83 7.2 44.9 164 14.5 58.1
04:00 1012 29.88 841 24.83 7.2 44.9 164 14.5 58.1
04:05 1012 29.88 841 24.83 7.2 44.9 164 14.5 58.2
04:10 1012 29.88 841 24.83 7.1 44.8 164 14.4 58
04:15 1012 29.88 841 24.83 7.2 44.9 164 14.5 58.1
04:20 1012 29.88 841 24.83 7.2 45 164 14.5 58.2
04:25 1012 29.88 841 24.83 7.2 45 164 14.5 58.2
04:30 1012 29.88 841 24.83 7.3 45.1 164 14.6 58.3
04:35 1012 29.88 841 24.83 7.3 45.1 164 14.6 58.3
04:40 1012 29.88 841 24.83 7.3 45.2 164 14.7 58.4
04:45 1012 29.88 841 24.83 7.4 45.2 164 14.7 58.5
04:50 1012 29.88 841 24.83 7.4 45.2 164 14.7 58.5
04:55 1012 29.88 841 24.83 7.4 45.3 164 14.7 58.5
05:00 1012 29.88 841 24.83 7.4 45.4 164 14.8 58.6
05:05 1012 29.88 841 24.83 7.4 45.3 164 14.7 58.5
05:10 1012 29.88 841 24.83 7.2 44.9 164 14.5 58.1
05:15 1012 29.88 841 24.83 7.1 44.8 164 14.5 58.1
05:20 1012 29.88 841 24.83 7 44.7 164 14.4 57.9
05:25 1012 29.88 842 24.86 7 44.6 164 14.3 57.8
05:30 1012 29.88 842 24.86 7 44.7 164 14.4 57.9
05:35 1012 29.88 842 24.86 7 44.7 164 14.4 57.9
05:40 1012 29.88 842 24.86 7 44.6 164 14.3 57.8
05:45 1012 29.88 842 24.86 7.1 44.7 164 14.4 57.9
05:50 1012 29.88 842 24.86 7.1 44.7 164 14.4 58
05:55 1012 29.88 842 24.86 7.2 44.9 164 14.5 58.2
06:00 1013 29.91 842 24.86 7.2 44.9 164 14.5 58.2
06:05 1013 29.91 842 24.86 7.2 44.9 164 14.5 58.1
06:10 1013 29.91 842 24.86 7.1 44.7 164 14.4 57.9
06:15 1013 29.91 842 24.86 7.2 44.9 164 14.5 58.1
06:20 1013 29.91 842 24.86 7.1 44.9 164 14.5 58.1
06:25 1013 29.91 842 24.86 7.2 44.9 164 14.5 58.1
06:30 1013 29.91 842 24.86 7.3 45.2 164 14.7 58.5
06:35 1013 29.91 842 24.86 7.3 45.1 164 14.6 58.3
06:40 1013 29.91 842 24.86 7.4 45.3 164 14.7 58.5
06:45 1013 29.91 842 24.86 7.5 45.5 164 14.9 58.8
06:50 1013 29.91 842 24.86 7.5 45.5 164 14.9 58.8
06:55 1013 29.91 842 24.86 7.4 45.3 164 14.8 58.6
07:00 1013 29.91 842 24.86 7.5 45.5 164 14.9 58.7
07:05 1013 29.91 842 24.86 7.6 45.7 164 15 59
07:10 1013 29.91 842 24.86 7.7 45.9 164 15.1 59.1
07:15 1013 29.91 842 24.86 7.8 46.1 164 15.2 59.4
07:20 1013 29.91 842 24.86 7.8 46.1 164 15.2 59.4
07:25 1013 29.91 842 24.86 7.9 46.2 164 15.3 59.5
07:30 1013 29.91 842 24.86 7.9 46.2 164 15.2 59.4
07:35 1013 29.91 842 24.86 7.9 46.2 164 15.3 59.5
07:40 1013 29.91 842 24.86 7.9 46.3 164 15.3 59.6
07:45 1013 29.91 842 24.86 8.1 46.5 164 15.5 59.8
07:50 1013 29.91 842 24.86 8.1 46.6 164 15.5 59.9
07:55 1013 29.91 842 24.86 8.1 46.7 164 15.5 60
08:00 1013 29.91 842 24.86 8.2 46.7 164 15.6 60.1
08:05 1013 29.91 842 24.86 8.3 46.9 164 15.7 60.2
08:10 1013 29.91 842 24.86 8.2 46.7 164 15.6 60.1
08:15 1013 29.91 842 24.86 8.1 46.5 164 15.5 59.8
08:20 1013 29.91 842 24.86 8.2 46.8 164 15.6 60.1
08:25 1013 29.91 842 24.86 8.3 46.9 164 15.7 60.2
08:30 1013 29.91 842 24.86 8.4 47.1 164 15.8 60.4
08:35 1013 29.91 842 24.86 8.4 47.2 164 15.8 60.5
08:40 1013 29.91 842 24.86 8.4 47.1 164 15.8 60.5
08:45 1013 29.91 842 24.86 8.4 47.2 164 15.8 60.5
08:50 1013 29.91 842 24.86 8.5 47.3 164 15.9 60.6
08:55 1013 29.91 842 24.86 8.7 47.7 164 16.1 61
09:00 1013 29.91 842 24.86 8.7 47.7 164 16.1 61.1
09:05 1013 29.91 842 24.86 8.6 47.6 164 16 60.9
09:10 1013 29.91 842 24.86 8.7 47.7 164 16.1 61
09:15 1013 29.91 842 24.86 8.8 47.8 164 16.2 61.1
09:20 1013 29.91 842 24.86 9.1 48.3 164 16.5 61.7
09:25 1013 29.91 842 24.86 9.4 49 164 16.9 62.3
09:30 1013 29.91 842 24.86 9.6 49.4 164 17.1 62.8
09:35 1013 29.91 842 24.86 9.8 49.7 164 17.3 63.1
09:40 1013 29.91 842 24.86 9.8 49.6 164 17.2 63
09:45 1013 29.91 842 24.86 9.9 49.9 164 17.4 63.3
09:50 1013 29.91 842 24.86 10 50 164 17.5 63.5
09:55 1013 29.91 842 24.86 10 50 164 17.5 63.4
10:00 1013 29.91 842 24.86 10.1 50.1 93 9 48.1
10:05 1013 29.91 842 24.86 10.1 50.3 91 8.8 47.8
10:10 1013 29.91 842 24.86 10.3 50.5 91 8.9 47.9
10:15 1013 29.91 842 24.86 10.2 50.4 90 8.7 47.7
10:20 1013 29.91 842 24.86 10.2 50.3 90 8.6 47.4
10:25 1013 29.91 842 24.86 10.3 50.5 89 8.5 47.3
10:30 1013 29.91 842 24.86 10.4 50.7 89 8.6 47.4
10:35 1013 29.91 842 24.86 10.4 50.8 88 8.5 47.3
10:40 1013 29.91 842 24.86 10.5 50.9 87 8.4 47.2
10:45 1013 29.91 842 24.86 10.5 50.9 87 8.5 47.3
10:50 1013 29.91 842 24.86 10.6 51 87 8.5 47.2
10:55 1013 29.91 842 24.86 10.6 51 87 8.5 47.3
11:00 1013 29.91 842 24.86 10.4 50.6 88 8.4 47.1
11:05 1013 29.91 842 24.86 10.1 50.2 89 8.4 47.1
11:10 1013 29.91 842 24.86 10.1 50.2 90 8.6 47.5
11:15 1013 29.91 842 24.86 10.3 50.6 90 8.8 47.8
11:20 1012 29.88 842 24.86 10.5 50.8 89 8.8 47.8
11:25 1012 29.88 842 24.86 10.6 51.1 88 8.7 47.7
11:30 1012 29.88 842 24.86 11.3 52.4 87 9.2 48.6
11:35 1012 29.88 842 24.86 12.3 54.1 79 8.8 47.9
11:40 1012 29.88 842 24.86 12 53.5 74 7.6 45.6
11:45 1012 29.88 842 24.86 11.6 52.8 77 7.7 45.8
11:50 1012 29.88 842 24.86 12.2 53.9 80 8.8 47.8
11:55 1012 29.88 842 24.86 11.7 53.1 81 8.6 47.5
12:00 1012 29.88 842 24.86 11.2 52.1 80 7.8 46.1
12:05 1012 29.88 842 24.86 11 51.7 82 8.1 46.6
12:10 1012 29.88 842 24.86 11.2 52.1 79 7.6 45.8
12:15 1012 29.88 842 24.86 11.7 53 77 7.7 45.9
12:20 1012 29.88 842 24.86 12.5 54.4 75 8.3 46.9
12:25 1012 29.88 842 24.86 13.2 55.7 71 8 46.4
12:30 1012 29.88 841 24.83 14 57.3 69 8.4 47.2
12:35 1012 29.88 841 24.83 14.5 58.2 65 8.1 46.6
12:40 1012 29.88 841 24.83 14 57.2 67 8 46.3
12:45 1012 29.88 841 24.83 13.9 57 67 7.9 46.3
12:50 1012 29.88 841 24.83 14 57.1 65 7.6 45.7
12:55 1012 29.88 841 24.83 14 57.2 64 7.3 45.1
13:00 1012 29.88 841 24.83 14.3 57.7 64 7.6 45.7
13:05 1012 29.88 841 24.83 14.5 58 62 7.3 45.2
13:10 1012 29.88 841 24.83 13.9 57 64 7.3 45.2
13:15 1012 29.88 841 24.83 13.2 55.8 67 7.2 44.9
13:20 1012 29.88 841 24.83 13.1 55.6 66 6.9 44.4
13:25 1012 29.88 841 24.83 13.6 56.5 63 6.7 44.1
13:30 1012 29.88 841 24.83 14 57.1 61 6.7 44.1
13:35 1012 29.88 841 24.83 14.1 57.4 61 6.9 44.4
13:40 1012 29.88 841 24.83 14.8 58.6 59 6.8 44.2
13:45 1012 29.88 841 24.83 14.2 57.6 62 7 44.6
13:50 1012 29.88 841 24.83 14.1 57.3 61 6.8 44.2
13:55 1012 29.88 841 24.83 13.9 57 63 7 44.5
14:00 1012 29.88 841 24.83 13.8 56.8 63 6.8 44.3
14:05 1012 29.88 841 24.83 14.4 57.8 60 6.9 44.4
14:10 1012 29.88 841 24.83 14.8 58.6 58 6.8 44.2
14:15 1012 29.88 841 24.83 15.6 60 57 7.2 44.9
14:20 1012 29.88 841 24.83 15.5 60 58 7.3 45.2
14:25 1012 29.88 841 24.83 15.6 60.1 56 6.9 44.5
14:30 1012 29.88 841 24.83 16.2 61.2 53 6.7 44.1
14:35 1012 29.88 841 24.83 16.7 62 51 6.5 43.7
14:40 1011 29.85 841 24.83 17.7 63.9 48 6.8 44.3
14:45 1011 29.85 841 24.83 17.8 64 49 7.1 44.8
14:50 1011 29.85 841 24.83 16.8 62.2 51 6.8 44.3
14:55 1011 29.85 841 24.83 17.2 63 49 6.5 43.6
15:00 1011 29.85 841 24.83 17.5 63.5 45 5.6 42.2
15:05 1011 29.85 841 24.83 18.2 64.8 44 5.8 42.5
15:10 1011 29.85 840 24.81 18 64.4 44 5.8 42.4
15:15 1011 29.85 840 24.81 16.9 62.4 47 5.6 42.1
15:20 1011 29.85 840 24.81 17.5 63.4 46 5.8 42.5
15:25 1011 29.85 840 24.81 17.9 64.3 48 6.9 44.4
15:30 1011 29.85 840 24.81 18.4 65 45 6.4 43.5
15:35 1011 29.85 840 24.81 18.3 64.9 42 5.4 41.7
15:40 1011 29.85 840 24.81 18.9 66.1 40 5.3 41.6
15:45 1011 29.85 840 24.81 18.9 66 41 5.4 41.8
15:50 1011 29.85 840 24.81 17.6 63.7 47 6.2 43.1
15:55 1011 29.85 840 24.81 17.6 63.7 46 5.8 42.5
16:00 1011 29.85 840 24.81 19 66.1 44 6.4 43.6
16:05 1010 29.83 840 24.81 16.5 61.7 51 6.5 43.7
16:10 1010 29.83 840 24.81 16.1 61.1 48 5.2 41.4
16:15 1010 29.83 840 24.81 17.1 62.7 46 5.4 41.8
16:20 1010 29.83 839 24.78 17.9 64.1 47 6.4 43.6
16:25 1010 29.83 839 24.78 18.4 65.1 44 5.9 42.6
16:30 1010 29.83 839 24.78 18.6 65.5 45 6.6 43.9
16:35 1010 29.83 839 24.78 18 64.4 44 5.8 42.5
16:40 1010 29.83 839 24.78 17.8 64.1 43 5.2 41.4
16:45 1010 29.83 839 24.78 18.4 65.1 42 5.4 41.7
16:50 1010 29.83 839 24.78 18.1 64.6 42 5.2 41.4
16:55 1010 29.83 839 24.78 19 66.2 40 5.1 41.1
17:00 1010 29.83 839 24.78 19.2 66.5 42 6.3 43.3
17:05 1010 29.83 839 24.78 17.9 64.3 46 6.3 43.4
17:10 1010 29.83 839 24.78 17.5 63.5 45 5.6 42.1
17:15 1010 29.83 839 24.78 17.6 63.6 46 5.9 42.6
17:20 1010 29.83 839 24.78 18.1 64.6 43 5.6 42.1
17:25 1010 29.83 839 24.78 17.4 63.3 46 5.8 42.4
17:30 1010 29.83 839 24.78 17 62.5 46 5.4 41.8
17:35 1010 29.83 839 24.78 17.4 63.3 47 6 42.8
17:40 1010 29.83 839 24.78 16.6 61.8 48 5.6 42.2
17:45 1010 29.83 839 24.78 16.6 61.9 47 5.5 41.9
17:50 1010 29.83 839 24.78 17.7 63.8 44 5.4 41.8
17:55 1010 29.83 839 24.78 17.3 63.1 48 6.2 43.1
18:00 1009 29.8 839 24.78 16.7 62.1 48 5.8 42.4
18:05 1009 29.8 839 24.78 17 62.6 46 5.5 41.9
18:10 1009 29.8 839 24.78 18 64.4 45 5.9 42.5
18:15 1009 29.8 839 24.78 18.6 65.4 42 5.6 42.1
18:20 1009 29.8 838 24.75 17.7 63.9 45 5.7 42.2
18:25 1009 29.8 838 24.75 17.7 63.8 44 5.5 41.9
18:30 1009 29.8 838 24.75 17 62.6 47 5.9 42.6
18:35 1009 29.8 838 24.75 16.1 61 48 5.3 41.6
18:40 1009 29.8 838 24.75 16.3 61.3 48 5.3 41.6
18:45 1009 29.8 838 24.75 16.7 62.1 47 5.4 41.7
18:50 1009 29.8 838 24.75 16.8 62.3 47 5.5 42
18:55 1009 29.8 838 24.75 17.2 63 45 5.4 41.8
19:00 1009 29.8 838 24.75 16.9 62.3 47 5.6 42
19:05 1009 29.8 838 24.75 16.7 62.1 48 5.8 42.4
19:10 1009 29.8 838 24.75 16.8 62.3 48 5.9 42.6
19:15 1009 29.8 838 24.75 16.7 62 49 6 42.8
19:20 1009 29.8 838 24.75 16.1 60.9 50 5.8 42.4
19:25 1009 29.8 838 24.75 16.2 61.1 49 5.4 41.8
19:30 1009 29.8 838 24.75 15.8 60.5 52 6 42.7
19:35 1009 29.8 838 24.75 15.9 60.5 50 5.6 42.2
19:40 1009 29.8 838 24.75 16.2 61.2 49 5.7 42.2
19:45 1009 29.8 838 24.75 16 60.8 50 5.6 42
19:50 1009 29.8 838 24.75 15.9 60.7 51 5.8 42.4
19:55 1009 29.8 838 24.75 15.8 60.4 50 5.6 42.1
20:00 1009 29.8 838 24.75 15.8 60.5 50 5.7 42.2
20:05 1009 29.8 838 24.75 15.9 60.7 51 6 42.8
20:10 1009 29.8 838 24.75 15.7 60.3 51 5.8 42.4
20:15 1009 29.8 838 24.75 15.6 60.1 51 5.7 42.2
20:20 1009 29.8 838 24.75 15.7 60.3 53 6.2 43.1
20:25 1009 29.8 838 24.75 15.8 60.4 52 5.9 42.6
20:30 1009 29.8 838 24.75 15.7 60.2 51 5.6 42
20:35 1009 29.8 838 24.75 15.7 60.2 52 6 42.8
20:40 1009 29.8 838 24.75 15.7 60.2 52 6 42.8
20:45 1009 29.8 838 24.75 15.7 60.2 54 6.3 43.4
20:50 1009 29.8 838 24.75 15.4 59.8 55 6.6 44
20:55 1009 29.8 838 24.75 15 58.9 65 8.5 47.3
21:00 1009 29.8 838 24.75 14.1 57.3 63 7.3 45.1
21:05 1008 29.77 838 24.75 13.6 56.5 64 7 44.7
21:10 1008 29.77 838 24.75 13.2 55.8 64 6.5 43.8
21:15 1008 29.77 838 24.75 12.8 55.1 65 6.5 43.6
21:20 1008 29.77 838 24.75 12.5 54.5 66 6.4 43.5
21:25 1008 29.77 838 24.75 12.3 54.2 65 6 42.9
21:30 1008 29.77 838 24.75 12.3 54.2 62 5.4 41.7
21:35 1008 29.77 838 24.75 12.4 54.2 62 5.3 41.5
21:40 1008 29.77 838 24.75 12.3 54.2 62 5.2 41.4
21:45 1008 29.77 838 24.75 12.2 53.9 62 5.1 41.2
21:50 1008 29.77 838 24.75 12 53.6 64 5.3 41.6
21:55 1008 29.77 838 24.75 11.7 53.1 64 5.2 41.4
22:00 1008 29.77 838 24.75 11.7 53 65 5.3 41.5
22:05 1008 29.77 838 24.75 11.7 53 64 5.2 41.4
22:10 1008 29.77 838 24.75 11.7 53.1 64 5.1 41.2
22:15 1008 29.77 838 24.75 11.8 53.3 64 5.2 41.4
22:20 1008 29.77 837 24.72 11.9 53.3 63 5.2 41.3
22:25 1008 29.77 838 24.75 11.9 53.3 63 5.2 41.3
22:30 1008 29.77 837 24.72 11.8 53.3 62 4.9 40.8
22:35 1008 29.77 838 24.75 11.9 53.4 62 4.8 40.7
22:40 1008 29.77 838 24.75 12 53.5 61 4.6 40.3
22:45 1008 29.77 838 24.75 12 53.6 60 4.6 40.3
22:50 1008 29.77 838 24.75 11.9 53.5 60 4.5 40.1
22:55 1008 29.77 838 24.75 11.9 53.4 60 4.5 40
23:00 1008 29.77 837 24.72 12 53.6 60 4.4 40
23:05 1008 29.77 837 24.72 11.9 53.4 60 4.5 40.1
23:10 1008 29.77 837 24.72 11.8 53.2 60 4.4 39.9
23:15 1008 29.77 837 24.72 11.7 53 61 4.6 40.2
23:20 1008 29.77 838 24.75 11.6 52.8 61 4.5 40
23:25 1008 29.77 837 24.72 11.6 52.9 61 4.3 39.7
23:30 1008 29.77 837 24.72 11.7 53.1 60 4.4 39.8
23:35 1008 29.77 837 24.72 11.7 53.1 62 4.7 40.5
23:40 1008 29.77 837 24.72 11.5 52.7 62 4.4 40
23:45 1008 29.77 837 24.72 11.4 52.5 64 4.9 40.8
23:50 1008 29.77 837 24.72 11.2 52.1 64 4.7 40.4
23:55 1008 29.77 837 24.72 11.2 52.1 64 4.6 40.3
24:00 1008 29.77 837 24.72 11.1 52 65 4.8 40.7